Time;durP1;ratioP1;P1;durP2;ratioP2;P2;SDS_P1;SDS_P2;PMS_P1;PMS_P2;Temp;Humidity;BMP_temperature;BMP_pressure;BME280_temperature;BME280_humidity;BME280_pressure;Samples;Min_cycle;Max_cycle;Signal;HPM_P1;HPM_P2
2021/03/18 00:01:55;;;;;;;8.52;5.05;;;3.40;81.70;;;2.18;68.97;99114.16;5117496;28;20521;-83
2021/03/18 00:04:22;;;;;;;10.57;5.40;;;3.40;82.00;;;2.10;69.82;99107.09;5116394;28;20425;-83
2021/03/18 00:06:49;;;;;;;14.40;5.30;;;3.40;82.40;;;2.13;69.53;99106.75;5115174;28;20413;-84
2021/03/18 00:09:19;;;;;;;14.02;7.78;;;3.40;82.40;;;2.07;70.66;99104.78;5115364;28;20436;-82
2021/03/18 00:11:47;;;;;;;7.47;4.93;;;3.40;83.40;;;2.15;70.23;99106.63;5106079;28;20513;-84
2021/03/18 00:14:16;;;;;;;8.98;4.93;;;3.40;83.50;;;2.17;68.43;99104.69;5103499;28;20413;-84
2021/03/18 00:16:43;;;;;;;9.02;5.55;;;3.40;81.60;;;2.19;68.70;99100.09;5104240;28;20429;-84
2021/03/18 00:19:10;;;;;;;10.13;5.28;;;3.40;81.60;;;2.24;68.70;99103.91;5106151;28;20406;-84
2021/03/18 00:21:36;;;;;;;8.87;5.30;;;3.50;81.70;;;2.39;67.62;99100.69;5103950;28;20418;-84
2021/03/18 00:24:06;;;;;;;9.07;4.65;;;3.50;80.60;;;2.33;67.93;99104.75;5108797;28;20479;-82
2021/03/18 00:26:33;;;;;;;8.73;5.10;;;3.50;80.70;;;2.39;67.58;99092.84;5116145;28;20402;-81
2021/03/18 00:29:01;;;;;;;11.18;5.10;;;3.60;80.50;;;2.36;66.65;99106.22;5106665;28;20453;-84
2021/03/18 00:31:30;;;;;;;11.17;4.93;;;3.50;79.60;;;2.24;67.44;99101.28;5084450;28;20449;-83
2021/03/18 00:33:58;;;;;;;8.27;5.05;;;3.50;80.20;;;2.16;68.46;99090.78;5103511;28;20409;-84
2021/03/18 00:36:26;;;;;;;10.23;5.10;;;3.50;81.10;;;2.15;68.71;99098.78;5102295;28;20508;-84
2021/03/18 00:38:53;;;;;;;10.68;5.22;;;3.40;81.70;;;2.15;68.50;99099.59;5101566;28;20390;-84
2021/03/18 00:41:20;;;;;;;8.60;5.70;;;3.40;81.10;;;2.25;68.25;99097.72;5102942;28;20505;-84
2021/03/18 00:43:46;;;;;;;11.00;5.20;;;3.40;81.20;;;2.32;67.34;99092.66;5104620;28;20412;-83
2021/03/18 00:46:13;;;;;;;9.70;5.13;;;3.50;80.20;;;2.26;67.70;99095.88;5105497;28;20724;-84
2021/03/18 00:48:39;;;;;;;8.73;5.00;;;3.50;80.30;;;2.30;67.80;99094.59;5102674;28;20868;-83
2021/03/18 00:51:10;;;;;;;10.52;5.13;;;3.50;80.50;;;2.21;67.78;99090.31;5101785;28;20801;-84
2021/03/18 00:53:39;;;;;;;10.45;4.78;;;3.50;80.10;;;2.20;68.06;99080.84;5082329;28;20414;-80
2021/03/18 00:56:11;;;;;;;10.93;4.63;;;3.50;80.50;;;2.30;67.26;99084.16;5100000;28;20428;-83
2021/03/18 00:58:39;;;;;;;7.68;4.47;;;3.50;80.30;;;2.33;66.18;99083.84;5100908;28;20711;-84
2021/03/18 01:01:07;;;;;;;10.40;5.20;;;3.50;79.10;;;2.32;66.30;99075.19;5100568;28;20410;-83
2021/03/18 01:03:38;;;;;;;10.33;4.80;;;3.50;79.00;;;2.25;67.81;99078.59;5101063;28;20467;-83
2021/03/18 01:06:08;;;;;;;8.63;4.30;;;3.50;80.20;;;2.36;67.14;99082.69;5096847;28;20447;-83
2021/03/18 01:08:35;;;;;;;8.70;4.45;;;3.60;80.30;;;2.20;66.63;99078.22;5100006;28;20788;-82
2021/03/18 01:11:06;;;;;;;11.02;4.90;;;3.50;78.60;;;2.44;65.82;99077.50;5099352;28;20455;-82
2021/03/18 01:13:32;;;;;;;7.57;4.20;;;3.60;78.60;;;2.42;64.78;99077.66;5099567;28;20406;-83
2021/03/18 01:16:04;;;;;;;10.50;5.10;;;3.60;77.40;;;2.41;64.78;99075.19;5099235;28;20432;-83
2021/03/18 01:18:39;;;;;;;9.15;4.63;;;3.60;77.30;;;2.29;64.77;99082.53;5099053;28;20775;-82
2021/03/18 01:21:07;;;;;;;9.45;4.25;;;3.50;77.10;;;2.07;64.74;99077.84;5100070;28;20418;-83
2021/03/18 01:23:34;;;;;;;9.23;4.37;;;3.40;76.90;;;1.94;65.55;99079.09;5101255;28;20823;-83
2021/03/18 01:26:00;;;;;;;7.63;4.38;;;3.20;77.70;;;1.88;66.00;99071.84;5101321;28;20528;-81
2021/03/18 01:28:27;;;;;;;9.32;4.70;;;3.20;78.30;;;1.89;66.01;99072.66;5100148;28;20453;-81
2021/03/18 01:30:53;;;;;;;8.15;4.35;;;3.10;78.50;;;1.95;65.63;99075.47;5100373;28;20726;-83
2021/03/18 01:33:21;;;;;;;7.77;4.53;;;3.10;78.20;;;1.99;65.86;99069.97;5101570;28;20484;-82
2021/03/18 01:35:47;;;;;;;9.60;4.77;;;3.20;78.50;;;1.96;66.21;99078.91;5105653;28;20513;-83
2021/03/18 01:38:14;;;;;;;10.77;4.30;;;3.20;78.70;;;1.99;66.44;99067.34;5105035;28;20408;-82
2021/03/18 01:40:40;;;;;;;7.90;4.28;;;3.20;79.00;;;2.04;65.87;99065.06;5101443;28;20409;-82
2021/03/18 01:43:07;;;;;;;6.65;4.30;;;3.30;78.70;;;2.13;65.63;99069.38;5100112;28;20459;-82
2021/03/18 01:45:33;;;;;;;9.20;4.65;;;3.30;78.50;;;2.13;66.48;99069.38;5099930;28;20425;-83
2021/03/18 01:48:00;;;;;;;10.13;4.63;;;3.30;78.70;;;2.20;65.94;99070.38;5098062;28;20414;-82
2021/03/18 01:50:31;;;;;;;10.88;4.80;;;3.40;78.40;;;2.19;66.18;99068.75;5099871;28;20402;-82
2021/03/18 01:52:58;;;;;;;8.70;4.05;;;3.40;78.50;;;2.25;66.08;99068.97;5099822;28;20530;-83
2021/03/18 01:55:31;;;;;;;6.95;4.20;;;3.50;78.50;;;2.24;65.78;99072.56;5100472;28;20422;-82
2021/03/18 01:57:57;;;;;;;11.02;4.60;;;3.50;78.20;;;2.18;66.38;99067.13;5099527;28;20421;-82
2021/03/18 02:00:25;;;;;;;7.40;4.13;;;3.50;78.50;;;2.28;65.77;99071.25;5099651;28;20479;-82
2021/03/18 02:02:52;;;;;;;7.32;4.43;;;3.50;78.20;;;2.14;65.65;99063.19;5099268;28;20410;-82
2021/03/18 02:05:20;;;;;;;7.97;4.60;;;3.40;77.80;;;2.19;66.46;99063.53;5100362;28;20410;-83
2021/03/18 02:07:49;;;;;;;10.57;5.00;;;3.40;78.60;;;2.13;66.35;99059.75;5099419;28;20404;-83
2021/03/18 02:10:15;;;;;;;9.35;4.68;;;3.40;78.70;;;2.07;66.51;99063.00;5099580;28;20405;-83
2021/03/18 02:12:41;;;;;;;9.40;4.22;;;3.40;78.60;;;2.21;65.54;99065.00;5081991;28;20418;-84
2021/03/18 02:15:10;;;;;;;9.35;4.35;;;3.40;78.20;;;2.29;65.14;99059.81;5101233;28;20422;-82
2021/03/18 02:17:49;;;;;;;7.30;3.88;;;3.40;77.80;;;2.31;65.13;99057.88;5099214;28;20876;-84
2021/03/18 02:21:01;;;;;;;9.65;4.50;;;3.50;77.50;;;2.23;64.98;99050.00;5098645;28;20649;-82
2021/03/18 02:24:13;;;;;;;8.90;4.50;;;3.40;77.00;;;2.02;65.91;99059.22;5098231;28;20406;-83
2021/03/18 02:27:36;;;;;;;8.20;4.30;;;3.30;77.80;;;2.03;65.83;99058.25;5100446;28;20407;-82
2021/03/18 02:30:43;;;;;;;8.70;4.45;;;3.20;78.60;;;2.07;65.72;99057.75;5101075;28;20398;-82
2021/03/18 02:34:21;;;;;;;9.43;4.38;;;3.20;78.40;;;1.93;66.43;99071.41;5098890;28;20413;-82
2021/03/18 02:36:53;;;;;;;10.32;4.15;;;3.10;78.50;;;1.78;67.24;99068.53;5098529;28;20527;-81
2021/03/18 02:39:26;;;;;;;12.10;4.85;;;3.10;79.30;;;1.81;67.99;99076.06;5097674;28;20799;-81
2021/03/18 02:41:59;;;;;;;7.72;4.30;;;3.10;80.50;;;1.84;66.77;99069.72;5081284;28;20449;-83
2021/03/18 02:44:29;;;;;;;7.18;4.13;;;3.10;79.60;;;2.11;65.58;99076.53;5100737;28;20493;-83
2021/03/18 02:47:04;;;;;;;10.30;4.72;;;3.20;78.40;;;2.10;65.17;99072.31;5099120;28;20806;-83
2021/03/18 02:49:33;;;;;;;9.80;4.63;;;3.30;77.60;;;2.00;65.38;99069.81;5109045;28;20397;-83
2021/03/18 02:52:01;;;;;;;9.43;4.30;;;3.20;77.60;;;2.05;65.69;99083.22;5107303;28;20406;-83
2021/03/18 02:54:28;;;;;;;8.88;4.30;;;3.20;78.20;;;2.03;66.28;99077.31;5101979;28;20504;-82
2021/03/18 02:57:00;;;;;;;6.50;4.43;;;3.30;78.90;;;2.04;66.21;99078.97;5109372;28;20486;-82
2021/03/18 02:59:32;;;;;;;9.52;4.43;;;3.30;78.50;;;2.07;66.18;99081.28;5109652;28;20777;-83
2021/03/18 03:02:00;;;;;;;9.10;4.25;;;3.30;78.60;;;2.16;65.28;99082.13;5081749;28;20565;-83
2021/03/18 03:04:28;;;;;;;9.95;4.82;;;3.40;77.80;;;2.27;65.33;99082.66;5100239;28;20402;-83
2021/03/18 03:06:55;;;;;;;7.88;4.22;;;3.50;77.90;;;2.28;64.51;99081.69;5099288;28;20418;-83
2021/03/18 03:09:23;;;;;;;7.22;3.95;;;3.50;76.90;;;2.16;64.30;99088.19;5100571;28;20418;-83
2021/03/18 03:11:50;;;;;;;8.88;4.18;;;3.40;76.40;;;2.06;64.82;99086.66;5099847;28;20483;-84
2021/03/18 03:14:19;;;;;;;6.17;3.97;;;3.30;77.00;;;2.03;65.59;99082.53;5103782;28;20470;-83
2021/03/18 03:16:46;;;;;;;8.65;4.47;;;3.20;77.80;;;2.11;64.93;99079.16;5103953;28;20433;-83
2021/03/18 03:19:14;;;;;;;10.32;4.70;;;3.20;77.20;;;2.06;64.47;99079.63;5105625;28;20437;-82
2021/03/18 03:21:41;;;;;;;8.65;3.78;;;3.30;76.70;;;2.11;64.76;99077.38;5085674;28;20496;-83
2021/03/18 03:24:09;;;;;;;12.15;4.15;;;3.30;77.10;;;2.19;64.12;99079.19;5101476;28;20676;-83
2021/03/18 03:26:37;;;;;;;7.60;3.97;;;3.40;76.40;;;2.06;65.13;99089.25;5099845;28;20448;-83
2021/03/18 03:29:04;;;;;;;8.23;4.05;;;3.30;77.00;;;2.02;65.35;99087.94;5103852;28;20412;-81
2021/03/18 03:31:30;;;;;;;8.90;4.20;;;3.20;77.30;;;2.00;65.28;99080.25;5110131;28;20913;-81
2021/03/18 03:33:57;;;;;;;9.38;4.20;;;3.20;77.60;;;1.88;65.55;99084.91;5108294;28;20590;-83
2021/03/18 03:36:23;;;;;;;9.52;4.00;;;3.10;77.40;;;1.84;65.65;99083.59;5101934;28;20479;-82
2021/03/18 03:38:50;;;;;;;9.17;4.20;;;3.00;77.80;;;1.92;65.28;99094.09;5104088;28;20731;-83
2021/03/18 03:41:16;;;;;;;9.82;4.30;;;3.10;77.80;;;1.88;65.73;99089.34;5109717;28;20520;-81
2021/03/18 03:43:43;;;;;;;14.17;4.60;;;3.10;78.90;;;1.84;65.80;99091.41;5103060;28;20410;-81
2021/03/18 03:46:09;;;;;;;7.10;4.07;;;3.00;78.00;;;1.74;66.28;99085.47;5106006;28;20436;-81
2021/03/18 03:48:35;;;;;;;8.63;4.38;;;3.00;78.30;;;1.75;66.31;99087.13;5111554;28;20397;-80
2021/03/18 03:51:03;;;;;;;8.30;4.30;;;3.00;78.60;;;1.70;66.28;99085.94;5108168;28;20424;-81
2021/03/18 03:53:43;;;;;;;8.98;4.25;;;2.90;78.60;;;1.65;66.66;99081.19;5105581;28;20398;-82
2021/03/18 03:56:20;;;;;;;9.65;4.50;;;2.90;78.90;;;1.66;67.01;99082.81;5107788;28;20443;-83
2021/03/18 03:58:51;;;;;;;8.57;4.65;;;2.90;79.40;;;1.72;66.87;99084.81;5099767;28;20414;-84
2021/03/18 04:01:27;;;;;;;7.13;3.90;;;2.90;79.30;;;1.72;66.32;99090.06;5096992;28;20422;-83
2021/03/18 04:04:02;;;;;;;8.55;4.30;;;2.90;79.00;;;1.71;66.75;99091.03;5098215;28;20422;-83
2021/03/18 04:06:32;;;;;;;9.63;4.05;;;2.90;79.00;;;1.77;66.78;99087.78;5080578;28;20418;-83
2021/03/18 04:09:01;;;;;;;7.15;4.20;;;3.00;79.40;;;1.75;66.64;99087.13;5098167;28;20413;-83
2021/03/18 04:11:28;;;;;;;8.13;4.23;;;3.00;79.10;;;1.66;67.10;99087.19;5098283;28;20823;-83
2021/03/18 04:13:55;;;;;;;8.05;4.40;;;2.90;79.40;;;1.74;66.73;99089.88;5099599;28;20448;-83
2021/03/18 04:16:24;;;;;;;10.30;4.82;;;2.90;79.50;;;1.76;66.75;99093.97;5102614;28;20438;-83
2021/03/18 04:18:54;;;;;;;10.00;4.17;;;3.00;79.40;;;1.79;66.24;99090.25;5085488;28;20443;-82
2021/03/18 04:21:21;;;;;;;9.80;4.57;;;3.00;78.60;;;1.77;66.22;99095.63;5103128;28;20470;-83
2021/03/18 04:23:48;;;;;;;7.60;4.32;;;3.00;78.70;;;1.78;66.65;99086.00;5105416;28;20420;-82
2021/03/18 04:26:15;;;;;;;8.30;4.63;;;3.00;79.00;;;1.77;66.53;99086.97;5105035;28;20500;-84
2021/03/18 04:28:43;;;;;;;11.50;4.63;;;3.00;79.10;;;1.71;66.66;99085.78;5102823;28;20406;-84
2021/03/18 04:31:11;;;;;;;9.93;4.43;;;2.90;78.80;;;1.71;66.60;99083.19;5084144;28;20444;-83
2021/03/18 04:33:39;;;;;;;9.00;4.20;;;2.90;78.80;;;1.63;66.37;99079.69;5085114;28;20463;-84
2021/03/18 04:36:07;;;;;;;9.35;4.78;;;2.90;78.70;;;1.59;67.20;99087.00;5081482;28;20424;-83
2021/03/18 04:38:34;;;;;;;8.07;4.75;;;2.80;79.50;;;1.55;67.19;99093.50;5081832;28;20414;-84
2021/03/18 04:41:01;;;;;;;10.20;4.38;;;2.80;79.60;;;1.57;67.07;99088.13;5081593;28;20418;-84
2021/03/18 04:43:27;;;;;;;7.90;4.32;;;2.80;79.70;;;1.59;67.02;99092.22;5081712;28;20410;-84
2021/03/18 04:45:57;;;;;;;10.57;4.00;;;2.80;79.30;;;1.71;66.76;99090.19;5082532;28;20412;-82
2021/03/18 04:48:25;;;;;;;14.43;4.32;;;2.90;79.30;;;1.60;66.86;99085.22;5084406;28;20756;-82
2021/03/18 04:50:52;;;;;;;16.25;4.80;;;2.80;79.70;;;1.63;66.92;99093.56;5084786;28;20448;-82
2021/03/18 04:53:19;;;;;;;9.27;4.30;;;2.80;79.20;;;1.52;67.28;99092.00;5085258;28;20419;-82
2021/03/18 04:55:46;;;;;;;12.52;4.88;;;2.80;79.60;;;1.55;67.12;99091.72;5084993;28;20424;-84
2021/03/18 04:58:13;;;;;;;10.65;4.20;;;2.80;79.60;;;1.68;66.96;99086.09;5085633;28;20404;-84
2021/03/18 05:00:41;;;;;;;8.93;4.15;;;2.90;79.50;;;1.69;66.15;99084.31;5084333;28;20427;-84
2021/03/18 05:03:09;;;;;;;9.20;4.85;;;2.90;78.90;;;1.50;66.86;99088.72;5083216;28;20438;-84
2021/03/18 05:05:37;;;;;;;11.88;5.22;;;2.80;78.80;;;1.52;67.38;99075.53;5084888;28;20416;-83
2021/03/18 05:08:05;;;;;;;11.87;4.70;;;2.70;79.70;;;1.57;67.47;99082.91;5083077;28;20907;-84
2021/03/18 05:10:34;;;;;;;9.85;4.30;;;2.70;80.00;;;1.61;66.64;99079.84;5083193;28;20423;-81
2021/03/18 05:13:07;;;;;;;12.18;4.60;;;2.80;79.20;;;1.62;66.78;99080.66;5081934;28;20414;-82
2021/03/18 05:15:36;;;;;;;9.70;4.63;;;2.80;79.20;;;1.73;67.07;99077.81;5082619;28;20418;-82
2021/03/18 05:18:04;;;;;;;10.10;4.40;;;2.90;79.40;;;1.72;66.53;99082.22;5082707;28;20443;-83
2021/03/18 05:20:32;;;;;;;12.75;4.40;;;2.90;79.00;;;1.69;66.57;99079.09;5081802;28;20415;-83
2021/03/18 05:22:59;;;;;;;15.90;4.38;;;2.90;79.00;;;1.65;66.68;99075.16;5082278;28;20408;-80
2021/03/18 05:25:29;;;;;;;7.95;4.30;;;2.90;79.20;;;1.64;66.45;99083.94;5079437;28;20778;-83
2021/03/18 05:27:56;;;;;;;10.68;4.53;;;2.90;78.70;;;1.65;66.34;99083.81;5078300;28;20927;-81
2021/03/18 05:30:25;;;;;;;12.57;4.25;;;2.90;78.90;;;1.65;66.43;99086.41;5079275;28;20423;-83
2021/03/18 05:32:51;;;;;;;17.90;4.70;;;2.90;79.10;;;1.67;66.93;99086.25;5079443;28;20411;-83
2021/03/18 05:35:17;;;;;;;8.23;4.18;;;2.90;79.30;;;1.67;66.77;99084.44;5090819;28;20410;-82
2021/03/18 05:37:44;;;;;;;10.13;4.72;;;2.90;79.00;;;1.72;66.57;99084.00;5099593;28;20525;-83
2021/03/18 05:40:14;;;;;;;8.93;4.30;;;2.90;79.40;;;1.73;66.90;99080.44;5100046;28;20679;-83
2021/03/18 05:42:40;;;;;;;10.25;5.03;;;2.90;79.40;;;1.74;66.84;99084.66;5099956;28;20401;-83
2021/03/18 05:45:11;;;;;;;7.75;4.25;;;2.90;79.20;;;1.73;67.12;99085.66;5100071;28;20489;-82
2021/03/18 05:47:37;;;;;;;9.68;5.32;;;2.90;79.50;;;1.66;67.40;99085.41;5102300;28;20681;-82
2021/03/18 05:50:09;;;;;;;11.77;5.18;;;2.90;79.70;;;1.57;67.23;99088.13;5101460;28;20406;-80
2021/03/18 05:52:37;;;;;;;9.20;5.38;;;2.80;79.70;;;1.58;68.14;99087.19;5103033;28;20402;-83
2021/03/18 05:55:07;;;;;;;11.80;4.70;;;2.80;80.30;;;1.67;67.90;99087.06;5102297;28;20398;-82
2021/03/18 05:57:36;;;;;;;15.93;5.40;;;2.80;80.80;;;1.67;67.70;99088.84;5101951;28;20449;-82
2021/03/18 06:00:06;;;;;;;12.73;4.90;;;2.90;80.60;;;1.64;67.80;99090.00;5101948;28;20517;-83
2021/03/18 06:02:33;;;;;;;13.48;4.93;;;2.90;80.50;;;1.68;68.17;99083.47;5102028;28;20406;-84
2021/03/18 06:05:01;;;;;;;12.02;5.20;;;2.90;80.90;;;1.70;68.23;99093.78;5101858;28;20398;-84
2021/03/18 06:07:27;;;;;;;11.95;5.38;;;2.90;80.60;;;1.76;68.07;99096.59;5086132;28;20518;-83
2021/03/18 06:09:56;;;;;;;13.93;5.47;;;2.90;80.70;;;1.73;67.98;99089.06;5104105;28;20409;-83
2021/03/18 06:12:22;;;;;;;11.95;6.03;;;2.90;80.60;;;1.71;68.29;99088.41;5105040;28;20429;-80
2021/03/18 06:14:49;;;;;;;10.52;5.05;;;2.90;80.80;;;1.77;67.75;99090.41;5104537;28;20409;-83
2021/03/18 06:17:17;;;;;;;8.80;5.40;;;3.00;80.60;;;1.70;67.93;99088.56;5104948;28;20429;-81
2021/03/18 06:19:43;;;;;;;15.48;5.57;;;2.90;80.60;;;1.76;68.03;99091.38;5105782;28;20396;-80
2021/03/18 06:22:09;;;;;;;13.95;5.25;;;2.90;80.60;;;1.82;67.81;99101.19;5104697;28;20402;-83
2021/03/18 06:24:48;;;;;;;13.00;5.00;;;3.00;80.40;;;1.83;67.29;99092.38;5103586;28;20540;-82
2021/03/18 06:27:21;;;;;;;10.07;4.95;;;3.10;80.10;;;1.95;66.72;99090.34;5101126;28;20699;-81
2021/03/18 06:29:48;;;;;;;12.07;4.87;;;3.10;79.50;;;2.02;67.04;99093.16;5100325;28;20482;-83
2021/03/18 06:32:20;;;;;;;11.55;4.70;;;3.20;79.80;;;2.04;67.01;99092.03;5100423;28;20975;-82
2021/03/18 06:34:49;;;;;;;11.25;4.55;;;3.30;79.70;;;2.13;66.23;99088.47;5100412;28;20695;-82
2021/03/18 06:37:35;;;;;;;11.87;5.57;;;3.30;79.30;;;2.20;65.54;99088.69;5081807;28;20607;-82
2021/03/18 06:40:13;;;;;;;10.60;4.80;;;3.40;78.30;;;2.39;64.64;99087.63;5100800;28;20428;-82
2021/03/18 06:42:41;;;;;;;10.02;4.97;;;3.50;77.20;;;2.50;64.03;99080.31;5100589;28;20406;-81
2021/03/18 06:45:12;;;;;;;12.35;5.25;;;3.70;76.40;;;2.37;64.17;99081.72;5101090;28;20408;-82
2021/03/18 06:47:41;;;;;;;15.68;5.25;;;3.60;76.00;;;2.28;64.77;99084.31;5102231;28;20397;-81
2021/03/18 06:50:09;;;;;;;15.30;5.00;;;3.50;76.80;;;2.22;64.81;99086.72;5086023;28;20490;-80
2021/03/18 06:52:37;;;;;;;14.00;5.13;;;3.40;77.30;;;2.13;65.27;99080.66;5103286;28;20467;-79
2021/03/18 06:55:06;;;;;;;8.63;4.65;;;3.30;77.50;;;2.20;65.21;99088.69;5105187;28;20436;-79
2021/03/18 06:57:35;;;;;;;12.48;5.32;;;3.40;77.60;;;2.26;65.04;99088.03;5103844;28;21396;-80
2021/03/18 07:00:03;;;;;;;13.35;5.07;;;3.40;77.60;;;2.30;64.45;99084.97;5100717;28;20512;-79
2021/03/18 07:02:30;;;;;;;10.65;5.35;;;3.50;76.70;;;2.28;64.13;99083.50;5102120;28;20412;-81
2021/03/18 07:04:57;;;;;;;13.13;5.53;;;3.50;76.20;;;2.32;64.10;99090.06;5107573;28;20405;-81
2021/03/18 07:07:25;;;;;;;12.63;5.22;;;3.50;76.40;;;2.41;63.49;99089.09;5107406;28;20409;-80
2021/03/18 07:09:54;;;;;;;7.55;4.95;;;3.60;75.70;;;2.45;64.00;99085.19;5104727;28;20402;-79
2021/03/18 07:12:29;;;;;;;13.00;5.28;;;3.60;76.00;;;2.49;63.59;99089.13;5103774;28;20425;-78
2021/03/18 07:14:58;;;;;;;10.90;4.97;;;3.70;75.80;;;2.52;62.79;99095.84;5100889;28;20550;-79
2021/03/18 07:17:33;;;;;;;13.70;5.60;;;3.70;74.70;;;2.51;62.93;99092.41;5100583;28;20417;-81
2021/03/18 07:20:12;;;;;;;12.82;5.18;;;3.70;74.70;;;2.68;62.12;99086.25;5098116;28;20394;-80
2021/03/18 07:22:43;;;;;;;12.93;5.80;;;3.80;74.30;;;2.73;62.61;99091.00;5096529;28;20467;-81
2021/03/18 07:25:14;;;;;;;11.32;5.53;;;3.90;74.60;;;2.72;63.04;99087.56;5081655;28;20414;-80
2021/03/18 07:27:43;;;;;;;12.37;5.77;;;3.80;74.80;;;2.63;62.49;99093.75;5083138;28;20850;-81
2021/03/18 07:30:27;;;;;;;13.48;5.95;;;3.80;74.20;;;2.55;62.70;99093.75;5096643;28;20672;-80
2021/03/18 07:32:56;;;;;;;12.27;5.50;;;3.80;74.30;;;2.62;63.14;99086.09;5095417;28;20418;-81
2021/03/18 07:35:24;;;;;;;24.80;6.97;;;3.80;75.00;;;2.88;62.23;99085.97;5098263;28;20484;-82
2021/03/18 07:37:51;;;;;;;16.02;6.93;;;4.00;74.50;;;2.86;62.00;99091.34;5098097;28;20510;-83
2021/03/18 07:40:17;;;;;;;51.65;7.85;;;4.00;74.00;;;2.83;62.71;99086.47;5098071;28;20892;-83
2021/03/18 07:42:46;;;;;;;15.75;6.47;;;4.00;74.30;;;2.98;62.19;99089.28;5096975;28;20718;-82
2021/03/18 07:45:13;;;;;;;12.65;6.55;;;4.10;74.10;;;2.65;63.41;99085.75;5079781;28;20406;-82
2021/03/18 07:47:41;;;;;;;11.57;6.20;;;4.00;74.40;;;2.46;63.42;99089.47;5100130;28;20483;-83
2021/03/18 07:50:11;;;;;;;14.35;6.80;;;3.70;74.60;;;2.44;63.64;99080.94;5103280;28;20585;-84
2021/03/18 07:52:42;;;;;;;20.73;7.45;;;3.70;75.30;;;2.51;63.83;99081.13;5102611;28;20406;-82
2021/03/18 07:55:12;;;;;;;27.23;14.43;;;3.80;75.60;;;2.47;63.70;99079.81;5103925;28;20512;-83
2021/03/18 07:57:43;;;;;;;11.05;7.38;;;3.70;75.40;;;2.57;63.65;99077.88;5084309;28;20459;-82
2021/03/18 08:00:11;;;;;;;16.02;7.57;;;3.80;75.40;;;2.67;63.42;99073.34;5101888;28;20505;-83
2021/03/18 08:02:38;;;;;;;12.20;7.88;;;3.90;75.40;;;2.88;63.47;99078.13;5099575;28;20436;-83
2021/03/18 08:05:06;;;;;;;16.55;6.88;;;4.10;75.50;;;3.00;62.62;99075.06;5100363;28;20417;-83
2021/03/18 08:07:48;;;;;;;14.43;7.22;;;4.20;74.80;;;3.11;62.12;99066.06;5082759;28;20487;-84
2021/03/18 08:10:38;;;;;;;16.08;7.25;;;4.40;73.90;;;3.27;62.11;99065.25;5102412;28;20474;-85
2021/03/18 08:13:05;;;;;;;16.42;8.00;;;4.50;73.80;;;3.36;61.45;99065.09;5105819;28;20414;-84
2021/03/18 08:15:43;;;;;;;16.73;7.75;;;4.60;73.40;;;3.67;60.55;99072.28;5098720;28;20426;-84
2021/03/18 08:18:37;;;;;;;17.07;7.30;;;4.70;72.20;;;3.64;60.50;99064.75;5083138;28;20735;-83
2021/03/18 08:21:11;;;;;;;13.45;7.57;;;4.70;72.00;;;3.75;60.16;99070.47;5094256;28;20411;-82
2021/03/18 08:23:53;;;;;;;15.80;7.70;;;4.80;71.70;;;3.53;60.10;99063.31;5095133;28;20442;-82
2021/03/18 08:26:35;;;;;;;14.98;7.78;;;4.70;71.40;;;3.35;60.54;99060.84;5093376;28;20475;-84
2021/03/18 08:29:05;;;;;;;17.98;7.25;;;4.50;71.20;;;3.24;60.85;99069.00;5078837;28;20461;-82
2021/03/18 08:31:54;;;;;;;18.35;7.90;;;4.40;72.00;;;3.35;60.82;99058.22;5079454;28;20407;-82
2021/03/18 08:34:42;;;;;;;16.33;7.45;;;4.50;72.50;;;3.37;60.35;99064.13;5082881;28;20407;-82
2021/03/18 08:37:09;;;;;;;21.13;7.32;;;4.50;72.00;;;3.47;60.32;99061.31;5086171;28;20814;-82
2021/03/18 08:39:41;;;;;;;18.98;7.70;;;4.60;71.80;;;3.66;59.72;99054.94;5072975;28;20549;-82
2021/03/18 08:42:40;;;;;;;19.05;7.35;;;4.80;71.40;;;3.62;59.45;99051.81;5074830;28;20403;-82
2021/03/18 08:45:36;;;;;;;16.80;8.10;;;4.80;70.40;;;3.61;60.19;99049.38;5092295;28;20449;-81
2021/03/18 08:48:19;;;;;;;17.42;7.47;;;4.70;71.20;;;3.53;60.03;99054.63;5084942;28;20408;-83
2021/03/18 08:50:53;;;;;;;14.43;7.20;;;4.70;71.50;;;3.43;59.52;99052.19;5081341;28;20407;-81
2021/03/18 08:53:44;;;;;;;15.27;7.57;;;4.60;70.40;;;3.58;59.11;99047.91;5065960;28;20430;-82
2021/03/18 08:56:10;;;;;;;18.00;7.90;;;4.60;70.20;;;3.57;58.97;99043.66;5091789;28;20519;-82
2021/03/18 08:58:53;;;;;;;12.90;6.90;;;4.70;70.00;;;3.43;59.25;99054.78;5096665;28;20412;-82
2021/03/18 09:01:21;;;;;;;13.70;6.72;;;4.60;69.80;;;3.54;58.48;99043.16;5095472;28;20407;-82
2021/03/18 09:03:57;;;;;;;13.80;6.77;;;4.70;69.50;;;3.64;58.15;99044.63;5085628;28;20685;-83
2021/03/18 09:06:27;;;;;;;20.85;7.18;;;4.80;69.20;;;3.80;57.28;99035.91;5079633;28;20683;-83
2021/03/18 09:08:53;;;;;;;12.40;6.90;;;4.90;69.30;;;3.85;57.09;99038.84;5076726;28;20418;-81
2021/03/18 09:11:26;;;;;;;13.80;6.50;;;5.00;67.90;;;3.89;56.67;99040.97;5077045;28;20399;-83
2021/03/18 09:13:53;;;;;;;12.90;6.97;;;5.00;67.30;;;3.67;56.41;99039.06;5061327;28;20426;-83
2021/03/18 09:16:24;;;;;;;11.60;6.70;;;4.90;66.20;;;3.64;56.49;99042.00;5079321;28;20458;-82
2021/03/18 09:18:59;;;;;;;12.85;6.70;;;4.80;66.80;;;3.73;57.43;99038.41;5078662;28;20412;-84
2021/03/18 09:21:25;;;;;;;16.35;7.60;;;4.80;68.00;;;3.79;57.85;99039.53;5078753;28;20407;-83
2021/03/18 09:23:52;;;;;;;11.97;6.50;;;4.90;68.40;;;3.59;57.45;99035.63;5061018;28;20582;-83
2021/03/18 09:26:18;;;;;;;17.60;7.37;;;4.80;67.30;;;3.74;58.21;99033.97;5079270;28;20822;-84
2021/03/18 09:28:50;;;;;;;39.60;9.13;;;4.80;68.70;;;3.84;57.17;99035.41;5081070;28;20403;-81
2021/03/18 09:31:22;;;;;;;16.52;6.75;;;4.90;67.80;;;3.87;57.19;99035.09;5087395;28;20414;-82
2021/03/18 09:33:51;;;;;;;12.90;7.10;;;5.00;67.70;;;3.63;57.72;99032.50;5069679;28;20431;-83
2021/03/18 09:36:25;;;;;;;17.33;9.32;;;4.90;67.80;;;3.61;57.70;99034.47;5079472;28;20443;-83
2021/03/18 09:39:00;;;;;;;21.65;7.85;;;4.80;68.00;;;3.85;58.50;99037.03;5087781;28;20419;-82
2021/03/18 09:41:28;;;;;;;137.70;20.27;;;4.90;69.40;;;3.75;59.23;99033.81;5088329;28;20500;-83
2021/03/18 09:44:08;;;;;;;16.20;7.20;;;4.90;70.00;;;3.62;59.34;99035.28;5081748;28;20407;-83
2021/03/18 09:46:37;;;;;;;11.35;6.65;;;4.80;70.10;;;3.41;59.71;99028.78;5084071;28;20399;-82
2021/03/18 09:49:27;;;;;;;;;;;;;;;;;;;;;
2021/03/18 09:52:42;;;;;;;15.30;6.88;;;4.60;71.00;;;3.55;59.59;99024.66;5083251;28;20478;-83
2021/03/18 09:55:34;;;;;;;14.63;6.80;;;4.60;70.80;;;3.54;57.99;99023.03;5084470;28;20681;-83
2021/03/18 09:58:29;;;;;;;81.97;14.50;;;4.70;68.80;;;3.58;58.81;99024.34;5068647;28;20420;-83
2021/03/18 10:00:56;;;;;;;168.82;21.23;;;4.70;69.50;;;3.68;58.38;99019.75;5084367;28;20415;-79
2021/03/18 10:03:40;;;;;;;14.13;5.88;;;4.80;69.00;;;3.68;56.81;99017.13;5083437;28;20439;-86
2021/03/18 10:12:45;;;;;;;13.77;5.30;;;5.30;63.90;;;4.29;53.66;99005.94;5074578;28;20483;-84
2021/03/18 10:15:19;;;;;;;19.45;9.13;;;5.50;63.30;;;4.42;53.10;99001.97;5080722;28;20849;-83
2021/03/18 10:17:48;;;;;;;16.73;6.50;;;5.50;62.70;;;4.59;55.02;98993.81;5079549;28;20412;-85
2021/03/18 10:20:19;;;;;;;17.00;6.82;;;5.70;64.90;;;4.76;55.20;99001.56;5063255;28;20439;-84
2021/03/18 10:22:56;;;;;;;28.02;6.63;;;5.80;65.40;;;4.50;53.82;99000.09;5080126;28;20427;-84
2021/03/18 10:25:23;;;;;;;15.48;6.13;;;5.80;63.10;;;4.40;54.30;99003.91;5079239;28;20804;-84
2021/03/18 10:27:57;;;;;;;12.77;6.18;;;5.50;63.80;;;4.21;54.74;98992.06;5079102;28;20400;-86
2021/03/18 10:30:24;;;;;;;15.55;5.90;;;5.40;64.10;;;4.21;55.78;98987.63;5082866;28;20424;-82
2021/03/18 10:33:12;;;;;;;218.77;24.88;;;5.40;65.40;;;4.26;55.18;98990.56;5070063;28;20650;-84
2021/03/18 10:36:03;;;;;;;17.52;5.28;;;5.40;65.10;;;4.35;53.44;98993.97;5081485;28;20407;-82
2021/03/18 10:38:32;;;;;;;13.10;5.65;;;5.40;63.30;;;4.32;54.86;98986.44;5086806;28;20859;-85
2021/03/18 10:41:04;;;;;;;13.85;6.07;;;5.50;64.90;;;4.20;54.78;98980.78;5089700;28;20416;-83
2021/03/18 10:43:33;;;;;;;14.80;5.95;;;5.40;64.70;;;4.20;54.08;98988.63;5082952;28;20438;-85
2021/03/18 10:46:02;;;;;;;17.80;5.03;;;5.40;63.60;;;4.11;54.16;98981.78;5061814;28;20495;-86
2021/03/18 10:48:31;;;;;;;21.35;6.50;;;5.30;63.40;;;4.27;54.49;98979.09;5061138;28;20689;-84
2021/03/18 10:51:08;;;;;;;11.57;5.07;;;5.40;64.20;;;4.48;52.60;98985.53;5077565;28;20540;-85
2021/03/18 10:53:36;;;;;;;25.95;6.20;;;5.60;62.90;;;4.46;53.43;98979.63;5078220;28;20403;-84
2021/03/18 10:56:06;;;;;;;13.70;5.82;;;5.50;62.80;;;4.45;53.57;98975.38;5077783;28;20431;-83